sensor_id;sensor_type;location;lat;lon;timestamp;P1;durP1;ratioP1;P2;durP2;ratioP2
17504;SDS011;8870;50.950;11.762;2022-09-16T14:20:09;0.77;;;0.30;;
17504;SDS011;8870;50.950;11.762;2022-09-16T14:25:28;0.90;;;0.30;;
17504;SDS011;8870;50.950;11.762;2022-09-16T14:30:36;0.70;;;0.30;;
17504;SDS011;8870;50.950;11.762;2022-09-16T14:35:44;0.30;;;0.28;;
17504;SDS011;8870;50.950;11.762;2022-09-16T14:40:51;0.75;;;0.20;;
17504;SDS011;8870;50.950;11.762;2022-09-16T14:45:56;1.85;;;0.40;;
17504;SDS011;8870;50.950;11.762;2022-09-16T14:51:11;0.43;;;0.20;;
17504;SDS011;8870;50.950;11.762;2022-09-16T14:56:23;0.20;;;0.20;;
17504;SDS011;8870;50.950;11.762;2022-09-16T15:01:30;1.05;;;0.30;;
17504;SDS011;8870;50.950;11.762;2022-09-16T15:06:38;0.85;;;0.40;;
17504;SDS011;8870;50.950;11.762;2022-09-16T15:11:51;1.55;;;0.28;;
17504;SDS011;8870;50.950;11.762;2022-09-16T15:17:03;0.38;;;0.20;;
17504;SDS011;8870;50.950;11.762;2022-09-16T15:22:14;1.73;;;0.28;;
17504;SDS011;8870;50.950;11.762;2022-09-16T15:27:20;0.88;;;0.30;;
17504;SDS011;8870;50.950;11.762;2022-09-16T15:32:26;0.85;;;0.32;;
17504;SDS011;8870;50.950;11.762;2022-09-16T15:37:35;1.13;;;0.40;;
17504;SDS011;8870;50.950;11.762;2022-09-16T15:42:41;0.50;;;0.30;;
17504;SDS011;8870;50.950;11.762;2022-09-16T15:47:52;0.77;;;0.22;;
17504;SDS011;8870;50.950;11.762;2022-09-16T15:53:05;0.55;;;0.20;;
17504;SDS011;8870;50.950;11.762;2022-09-16T15:58:14;0.43;;;0.30;;
17504;SDS011;8870;50.950;11.762;2022-09-16T16:03:23;1.13;;;0.30;;
17504;SDS011;8870;50.950;11.762;2022-09-16T16:08:39;0.80;;;0.30;;
17504;SDS011;8870;50.950;11.762;2022-09-16T16:13:47;0.38;;;0.20;;
17504;SDS011;8870;50.950;11.762;2022-09-16T16:18:52;0.75;;;0.40;;
17504;SDS011;8870;50.950;11.762;2022-09-16T16:24:01;0.82;;;0.30;;
17504;SDS011;8870;50.950;11.762;2022-09-16T16:29:06;1.00;;;0.40;;
17504;SDS011;8870;50.950;11.762;2022-09-16T16:34:10;1.65;;;0.40;;
17504;SDS011;8870;50.950;11.762;2022-09-16T16:39:20;0.88;;;0.30;;
17504;SDS011;8870;50.950;11.762;2022-09-16T16:44:25;1.25;;;0.40;;
17504;SDS011;8870;50.950;11.762;2022-09-16T16:49:31;0.85;;;0.40;;
17504;SDS011;8870;50.950;11.762;2022-09-16T16:54:39;0.63;;;0.40;;
17504;SDS011;8870;50.950;11.762;2022-09-16T16:59:44;1.13;;;0.45;;
17504;SDS011;8870;50.950;11.762;2022-09-16T20:43:05;2.63;;;0.70;;
17504;SDS011;8870;50.950;11.762;2022-09-16T20:48:10;2.20;;;0.70;;
17504;SDS011;8870;50.950;11.762;2022-09-16T20:53:15;2.63;;;0.70;;
17504;SDS011;8870;50.950;11.762;2022-09-16T20:58:23;1.45;;;0.60;;
17504;SDS011;8870;50.950;11.762;2022-09-16T21:03:28;1.65;;;0.57;;
17504;SDS011;8870;50.950;11.762;2022-09-16T21:08:33;3.85;;;0.80;;
17504;SDS011;8870;50.950;11.762;2022-09-16T21:13:42;4.00;;;0.85;;
17504;SDS011;8870;50.950;11.762;2022-09-16T21:18:51;1.83;;;0.52;;
17504;SDS011;8870;50.950;11.762;2022-09-16T21:23:57;2.60;;;0.70;;
17504;SDS011;8870;50.950;11.762;2022-09-16T21:29:06;2.72;;;0.80;;
17504;SDS011;8870;50.950;11.762;2022-09-16T21:34:14;2.80;;;0.65;;
17504;SDS011;8870;50.950;11.762;2022-09-16T21:39:20;2.88;;;0.70;;
17504;SDS011;8870;50.950;11.762;2022-09-16T21:44:28;3.70;;;0.90;;
17504;SDS011;8870;50.950;11.762;2022-09-16T21:49:33;4.20;;;0.75;;
17504;SDS011;8870;50.950;11.762;2022-09-16T21:54:37;3.28;;;0.70;;
17504;SDS011;8870;50.950;11.762;2022-09-16T21:59:45;3.90;;;0.80;;
17504;SDS011;8870;50.950;11.762;2022-09-16T22:04:50;2.13;;;0.68;;
17504;SDS011;8870;50.950;11.762;2022-09-16T22:09:55;2.90;;;0.60;;
17504;SDS011;8870;50.950;11.762;2022-09-16T22:15:03;2.42;;;0.82;;
17504;SDS011;8870;50.950;11.762;2022-09-16T22:20:09;1.60;;;0.65;;
17504;SDS011;8870;50.950;11.762;2022-09-16T22:25:15;3.38;;;0.88;;
17504;SDS011;8870;50.950;11.762;2022-09-16T22:30:22;4.20;;;0.77;;
17504;SDS011;8870;50.950;11.762;2022-09-16T22:35:27;2.45;;;0.90;;
17504;SDS011;8870;50.950;11.762;2022-09-16T22:40:33;4.28;;;0.90;;
17504;SDS011;8870;50.950;11.762;2022-09-16T22:45:40;2.60;;;0.82;;
17504;SDS011;8870;50.950;11.762;2022-09-16T22:50:53;6.22;;;1.08;;
17504;SDS011;8870;50.950;11.762;2022-09-16T22:55:58;3.15;;;0.90;;
17504;SDS011;8870;50.950;11.762;2022-09-16T23:01:08;2.70;;;0.80;;
17504;SDS011;8870;50.950;11.762;2022-09-16T23:06:15;4.30;;;0.93;;
17504;SDS011;8870;50.950;11.762;2022-09-16T23:11:20;2.03;;;0.80;;
17504;SDS011;8870;50.950;11.762;2022-09-16T23:16:29;6.50;;;1.08;;
17504;SDS011;8870;50.950;11.762;2022-09-16T23:21:36;2.45;;;0.57;;
17504;SDS011;8870;50.950;11.762;2022-09-16T23:26:43;3.63;;;0.82;;
17504;SDS011;8870;50.950;11.762;2022-09-16T23:31:51;3.28;;;1.00;;
17504;SDS011;8870;50.950;11.762;2022-09-16T23:36:57;2.42;;;0.60;;
17504;SDS011;8870;50.950;11.762;2022-09-16T23:42:02;5.32;;;0.90;;
17504;SDS011;8870;50.950;11.762;2022-09-16T23:47:10;2.83;;;0.90;;
17504;SDS011;8870;50.950;11.762;2022-09-16T23:52:15;2.60;;;0.70;;
17504;SDS011;8870;50.950;11.762;2022-09-16T23:57:20;2.65;;;0.70;;
